HKMO/MBA METAR and TAF weather

Enter ICAO airport designator
Station Type Date Time Source
HKMO METAR 2020/09/22 20:00 UTC NOAA

HKMO 222000Z 17006KT 9999 BKN022 BKN080 25/22 Q1016 NOSIG


Station Type Date Time Source
HKMO Decoded METAR 2020/09/22 20:00 UTC NOAA

Mombasa, Kenya (HKMO) 04-02S 039-37E 55M
Sep 22, 2020 - 04:00 PM EDT / 2020.09.22 2000 UTC
Wind: from the S (170 degrees) at 7 MPH (6 KT):0
Visibility: greater than 7 mile(s):0
Sky conditions: mostly cloudy
Temperature: 77 F (25 C)
Dew Point: 71 F (22 C)
Relative Humidity: 83%
Pressure (altimeter): 30.00 in. Hg (1016 hPa)
ob: HKMO 222000Z 17006KT 9999 BKN022 BKN080 25/22 Q1016 NOSIG
cycle: 20

Station Type Date Time Source
HKMO TAF 2020/09/22 18:36 UTC NOAA

TAF TAF HKMO 221700Z 2218/2324 20005KT 9999 FEW022 BKN080
TEMPO 2300/2306 -SHRA FEW019CB BKN020 BKN080
BECMG 2310/2313 16015KT NSW SCT025
BECMG 2318/2321 18005KT

Example: see airport list